createdAt,value
2022-08-28T00:02:01.764Z,25.14
2022-08-28T00:07:23.270Z,25.28
2022-08-28T00:12:47.167Z,25.37
2022-08-28T00:18:09.022Z,25.27
2022-08-28T00:23:42.274Z,25.22
2022-08-28T00:29:05.567Z,25.13
2022-08-28T00:34:32.993Z,24.97
2022-08-28T00:39:55.309Z,24.88
2022-08-28T00:45:20.564Z,24.79
2022-08-28T00:51:00.958Z,24.73
2022-08-28T00:56:23.516Z,24.65
2022-08-28T01:01:47.663Z,24.68
2022-08-28T01:07:13.156Z,24.70
2022-08-28T01:12:36.021Z,24.74
2022-08-28T01:18:07.369Z,24.77
2022-08-28T01:23:57.984Z,24.71
2022-08-28T01:29:20.988Z,24.63
2022-08-28T01:34:42.417Z,24.55
2022-08-28T01:40:09.556Z,24.44
2022-08-28T01:45:32.297Z,24.36
2022-08-28T01:50:55.517Z,24.21
2022-08-28T01:56:17.969Z,23.98
2022-08-28T02:01:42.784Z,23.72
2022-08-28T02:07:04.495Z,23.57
2022-08-28T02:12:26.101Z,23.47
2022-08-28T02:17:47.973Z,23.31
2022-08-28T02:23:10.107Z,23.17
2022-08-28T02:28:31.879Z,23.04
2022-08-28T02:33:53.690Z,22.92
2022-08-28T02:39:16.782Z,22.81
2022-08-28T02:44:38.817Z,22.74
2022-08-28T02:50:00.504Z,22.73
2022-08-28T02:55:24.774Z,22.66
2022-08-28T03:00:46.374Z,22.63
2022-08-28T03:06:08.820Z,22.56
2022-08-28T03:11:30.414Z,22.58
2022-08-28T03:16:52.933Z,22.61
2022-08-28T03:22:14.400Z,22.70
2022-08-28T03:27:36.253Z,22.75
2022-08-28T03:32:57.744Z,22.78
2022-08-28T03:38:19.944Z,22.80
2022-08-28T03:43:41.754Z,22.84
2022-08-28T03:49:04.605Z,22.82
2022-08-28T03:54:26.376Z,22.86
2022-08-28T03:59:53.373Z,22.87
2022-08-28T04:05:15.017Z,22.93
2022-08-28T04:10:36.924Z,22.96
2022-08-28T04:16:00.539Z,22.91
2022-08-28T04:21:24.522Z,22.97
2022-08-28T04:26:46.002Z,23.11
2022-08-28T04:32:07.848Z,23.26
2022-08-28T04:37:29.383Z,23.28
2022-08-28T04:42:51.901Z,23.44
2022-08-28T04:48:14.652Z,23.53
2022-08-28T04:53:38.608Z,23.66
2022-08-28T04:59:01.605Z,23.89
2022-08-28T05:04:23.129Z,24.28
2022-08-28T05:09:44.893Z,24.18
2022-08-28T05:15:06.938Z,24.22
2022-08-28T05:20:28.459Z,24.48
2022-08-28T05:25:50.072Z,24.62
2022-08-28T05:31:16.576Z,25.02
2022-08-28T05:36:39.694Z,25.29
2022-08-28T05:42:01.182Z,25.10
2022-08-28T05:47:22.521Z,25.29
2022-08-28T05:52:44.848Z,25.71
2022-08-28T05:58:26.189Z,27.07
2022-08-28T06:03:55.332Z,29.80
2022-08-28T06:09:28.105Z,30.72
2022-08-28T06:14:50.846Z,32.76
2022-08-28T06:20:13.026Z,34.21
2022-08-28T06:25:45.261Z,34.05
2022-08-28T06:31:24.657Z,34.91
2022-08-28T06:36:53.117Z,36.57
2022-08-28T06:42:15.974Z,37.35
2022-08-28T06:47:37.279Z,39.31
2022-08-28T06:52:59.132Z,39.00
2022-08-28T06:58:20.776Z,39.96
2022-08-28T07:03:44.330Z,39.26
2022-08-28T07:09:09.556Z,38.74
2022-08-28T07:14:30.864Z,39.14
2022-08-28T07:19:52.135Z,38.72
2022-08-28T07:25:15.808Z,38.96
2022-08-28T07:30:37.809Z,39.54
2022-08-28T07:36:00.536Z,39.91
2022-08-28T07:41:31.982Z,40.01
2022-08-28T07:46:55.649Z,38.13
2022-08-28T07:52:17.050Z,36.93
2022-08-28T07:57:38.434Z,35.36
2022-08-28T08:03:00.100Z,36.27
2022-08-28T08:08:22.520Z,35.95
2022-08-28T08:13:46.900Z,36.15
2022-08-28T08:19:16.920Z,36.33
2022-08-28T08:24:38.523Z,37.83
2022-08-28T08:30:01.269Z,39.69
2022-08-28T08:35:24.555Z,36.20
2022-08-28T08:40:47.532Z,36.57
2022-08-28T08:46:10.279Z,36.53
2022-08-28T08:51:43.215Z,36.64
2022-08-28T08:57:05.146Z,35.08
2022-08-28T09:02:34.662Z,32.52
2022-08-28T09:08:01.177Z,31.07
2022-08-28T09:13:34.252Z,30.71
2022-08-28T09:18:58.044Z,30.63
2022-08-28T09:24:35.659Z,30.53
2022-08-28T09:29:59.168Z,30.53
2022-08-28T09:35:32.562Z,30.37
2022-08-28T09:41:30.030Z,30.33
2022-08-28T09:46:52.674Z,30.29
2022-08-28T09:52:25.008Z,30.41
2022-08-28T09:57:48.572Z,30.39
2022-08-28T10:03:27.860Z,30.13
2022-08-28T10:09:01.654Z,30.21
2022-08-28T10:14:34.594Z,30.26
2022-08-28T10:20:17.910Z,30.19
2022-08-28T10:25:59.340Z,30.14
2022-08-28T10:31:43.546Z,30.49
2022-08-28T10:37:16.668Z,30.74
2022-08-28T10:42:47.967Z,30.89
2022-08-28T10:48:33.615Z,30.96
2022-08-28T10:54:24.948Z,31.15
2022-08-28T10:59:51.359Z,31.16
2022-08-28T11:05:13.365Z,31.18
2022-08-28T11:10:45.556Z,31.48
2022-08-28T11:16:18.428Z,31.23
2022-08-28T11:21:42.636Z,31.23
2022-08-28T11:27:20.912Z,31.18
2022-08-28T11:32:51.516Z,31.19
2022-08-28T11:38:42.032Z,31.20
2022-08-28T11:44:09.686Z,31.15
2022-08-28T11:49:39.325Z,30.89
2022-08-28T11:55:16.322Z,30.87
2022-08-28T12:00:58.057Z,31.21
2022-08-28T12:06:44.893Z,31.11
2022-08-28T12:12:13.770Z,31.14
2022-08-28T12:17:46.867Z,30.87
2022-08-28T12:23:23.817Z,30.77
2022-08-28T12:28:48.620Z,30.74
2022-08-28T12:34:24.655Z,31.00
2022-08-28T12:39:45.971Z,31.14
2022-08-28T12:45:11.292Z,31.01
2022-08-28T12:50:39.294Z,30.81
2022-08-28T12:56:01.097Z,30.76
2022-08-28T13:01:31.730Z,30.98
2022-08-28T13:07:01.997Z,31.15
2022-08-28T13:12:55.281Z,30.99
2022-08-28T13:18:52.321Z,30.98
2022-08-28T13:24:27.532Z,31.01
2022-08-28T13:29:57.389Z,31.04
2022-08-28T13:35:21.034Z,31.56
2022-08-28T13:40:59.377Z,31.97
2022-08-28T13:46:21.569Z,32.02
2022-08-28T13:51:43.567Z,31.57
2022-08-28T13:57:05.698Z,31.35
2022-08-28T14:02:46.684Z,31.14
2022-08-28T14:08:08.647Z,31.11
2022-08-28T14:13:31.409Z,31.05
2022-08-28T14:18:54.839Z,30.88
2022-08-28T14:24:19.116Z,30.82
2022-08-28T14:29:41.699Z,30.69
2022-08-28T14:35:05.975Z,30.54
2022-08-28T14:40:27.424Z,30.53
2022-08-28T14:45:50.493Z,30.54
2022-08-28T14:51:11.943Z,30.60
2022-08-28T14:56:33.648Z,30.53
2022-08-28T15:02:00.344Z,30.40
2022-08-28T15:07:23.007Z,30.30
2022-08-28T15:12:44.784Z,30.22
2022-08-28T15:18:10.661Z,30.20
2022-08-28T15:23:32.852Z,30.14
2022-08-28T15:29:02.508Z,30.00
2022-08-28T15:34:27.573Z,29.90
2022-08-28T15:40:08.254Z,29.77
2022-08-28T15:45:30.185Z,29.63
2022-08-28T15:50:52.577Z,29.51
2022-08-28T15:56:15.663Z,29.32
2022-08-28T16:01:38.675Z,29.15
2022-08-28T16:07:01.177Z,29.07
2022-08-28T16:12:23.139Z,29.06
2022-08-28T16:17:44.852Z,29.03
2022-08-28T16:23:06.184Z,29.02
2022-08-28T16:28:28.945Z,28.99
2022-08-28T16:33:50.966Z,28.89
2022-08-28T16:39:12.346Z,28.71
2022-08-28T16:44:35.086Z,28.60
2022-08-28T16:49:58.306Z,28.53
2022-08-28T16:55:19.943Z,28.43
2022-08-28T17:00:52.828Z,28.29
2022-08-28T17:06:19.758Z,28.20
2022-08-28T17:11:42.277Z,28.10
2022-08-28T17:17:04.899Z,28.00
2022-08-28T17:22:32.704Z,27.91
2022-08-28T17:27:54.830Z,27.81
2022-08-28T17:33:16.435Z,27.69
2022-08-28T17:38:38.614Z,27.65
2022-08-28T17:44:01.153Z,27.64
2022-08-28T17:49:22.973Z,27.57
2022-08-28T17:54:56.292Z,27.52
2022-08-28T18:00:18.507Z,27.47
2022-08-28T18:05:41.477Z,27.40
2022-08-28T18:11:02.940Z,27.33
2022-08-28T18:16:28.892Z,27.29
2022-08-28T18:21:51.982Z,27.24
2022-08-28T18:27:13.526Z,27.24
2022-08-28T18:32:35.279Z,27.18
2022-08-28T18:37:56.778Z,27.20
2022-08-28T18:43:20.483Z,27.19
2022-08-28T18:48:43.224Z,27.09
2022-08-28T18:54:04.660Z,27.03
2022-08-28T18:59:31.862Z,26.91
2022-08-28T19:04:53.619Z,26.92
2022-08-28T19:10:32.812Z,26.86
2022-08-28T19:15:55.803Z,26.58
2022-08-28T19:21:19.833Z,26.33
2022-08-28T19:26:41.388Z,26.26
2022-08-28T19:32:03.283Z,26.24
2022-08-28T19:37:25.412Z,26.19
2022-08-28T19:42:46.921Z,26.12
2022-08-28T19:48:08.850Z,26.05
2022-08-28T19:53:31.809Z,26.04
2022-08-28T19:58:54.962Z,25.97
2022-08-28T20:04:17.978Z,25.94
2022-08-28T20:09:39.716Z,25.86
2022-08-28T20:15:03.629Z,25.93
2022-08-28T20:20:29.752Z,25.85
2022-08-28T20:25:51.884Z,25.79
2022-08-28T20:31:18.151Z,25.71
2022-08-28T20:36:40.210Z,25.63
2022-08-28T20:42:01.525Z,25.55
2022-08-28T20:47:23.541Z,25.55
2022-08-28T20:52:45.491Z,25.47
2022-08-28T20:58:07.294Z,25.48
2022-08-28T21:03:29.182Z,25.59
2022-08-28T21:08:50.761Z,25.33
2022-08-28T21:14:12.673Z,25.30
2022-08-28T21:19:40.670Z,25.34
2022-08-28T21:25:02.719Z,25.37
2022-08-28T21:30:25.496Z,25.49
2022-08-28T21:35:51.040Z,25.34
2022-08-28T21:41:14.409Z,25.32
2022-08-28T21:46:35.805Z,25.37
2022-08-28T21:52:01.265Z,25.36
2022-08-28T21:57:22.775Z,25.23
2022-08-28T22:02:44.631Z,25.10
2022-08-28T22:08:05.787Z,25.04
2022-08-28T22:13:27.488Z,24.98
2022-08-28T22:18:49.116Z,25.06
2022-08-28T22:24:12.110Z,24.40
2022-08-28T22:29:36.721Z,23.77
2022-08-28T22:34:58.109Z,23.36
2022-08-28T22:40:20.746Z,23.13
2022-08-28T22:46:23.918Z,23.20
2022-08-28T22:51:45.473Z,23.17
2022-08-28T22:57:07.122Z,23.13
2022-08-28T23:02:28.996Z,23.04
2022-08-28T23:07:50.779Z,23.03
2022-08-28T23:13:14.287Z,23.07
2022-08-28T23:19:06.128Z,23.12
2022-08-28T23:24:17.937Z,23.02
2022-08-28T23:29:39.730Z,22.98
2022-08-28T23:35:01.299Z,22.87
2022-08-28T23:40:24.838Z,22.74
2022-08-28T23:45:46.254Z,22.69
2022-08-28T23:51:11.839Z,22.61
2022-08-28T23:56:33.841Z,22.46
